sensor_id;sensor_type;location;lat;lon;timestamp;pressure;altitude;pressure_sealevel;temperature;humidity
65280;BME280;51878;55.748;48.742;2022-07-29T00:00:10;99119.56;;;17.16;76.07
65280;BME280;51878;55.748;48.742;2022-07-29T00:02:37;99122.06;;;17.05;76.35
65280;BME280;51878;55.748;48.742;2022-07-29T00:05:05;99130.97;;;17.01;76.78
65280;BME280;51878;55.748;48.742;2022-07-29T00:07:32;99097.44;;;16.75;76.90
65280;BME280;51878;55.748;48.742;2022-07-29T00:09:59;99126.00;;;16.98;76.77
65280;BME280;51878;55.748;48.742;2022-07-29T00:12:26;99135.84;;;17.10;75.95
65280;BME280;51878;55.748;48.742;2022-07-29T00:14:54;99088.69;;;16.85;76.25
65280;BME280;51878;55.748;48.742;2022-07-29T00:17:25;99122.88;;;16.94;76.40
65280;BME280;51878;55.748;48.742;2022-07-29T00:19:53;99087.34;;;16.76;76.87
65280;BME280;51878;55.748;48.742;2022-07-29T00:22:20;99094.38;;;16.71;76.79
65280;BME280;51878;55.748;48.742;2022-07-29T00:24:48;99119.16;;;16.88;77.22
65280;BME280;51878;55.748;48.742;2022-07-29T00:27:16;99058.84;;;16.41;77.62
65280;BME280;51878;55.748;48.742;2022-07-29T00:29:44;99092.19;;;16.62;77.34
65280;BME280;51878;55.748;48.742;2022-07-29T00:32:11;99124.28;;;16.85;77.19
65280;BME280;51878;55.748;48.742;2022-07-29T00:34:38;99135.16;;;16.91;77.34
65280;BME280;51878;55.748;48.742;2022-07-29T00:37:24;99110.25;;;16.93;76.64
65280;BME280;51878;55.748;48.742;2022-07-29T00:39:51;99087.50;;;16.81;76.55
65280;BME280;51878;55.748;48.742;2022-07-29T00:42:19;99064.59;;;16.63;76.42
65280;BME280;51878;55.748;48.742;2022-07-29T00:44:46;99085.59;;;16.81;76.54
65280;BME280;51878;55.748;48.742;2022-07-29T00:47:13;99122.16;;;16.99;76.59
65280;BME280;51878;55.748;48.742;2022-07-29T00:49:41;99059.13;;;16.63;76.50
65280;BME280;51878;55.748;48.742;2022-07-29T00:52:10;99115.84;;;16.98;76.29
65280;BME280;51878;55.748;48.742;2022-07-29T00:54:39;99105.00;;;16.91;76.49
65280;BME280;51878;55.748;48.742;2022-07-29T00:57:11;99127.31;;;17.07;76.36
65280;BME280;51878;55.748;48.742;2022-07-29T00:59:39;99126.69;;;17.05;76.34
65280;BME280;51878;55.748;48.742;2022-07-29T01:02:06;99099.41;;;16.86;76.13
65280;BME280;51878;55.748;48.742;2022-07-29T01:04:33;99088.63;;;16.73;76.36
65280;BME280;51878;55.748;48.742;2022-07-29T01:07:02;99069.34;;;16.68;75.74
65280;BME280;51878;55.748;48.742;2022-07-29T01:09:31;99126.69;;;17.05;75.80
65280;BME280;51878;55.748;48.742;2022-07-29T01:12:00;99092.50;;;16.84;75.81
65280;BME280;51878;55.748;48.742;2022-07-29T01:14:28;99085.91;;;16.73;75.69
65280;BME280;51878;55.748;48.742;2022-07-29T01:17:00;99125.63;;;17.06;75.47
65280;BME280;51878;55.748;48.742;2022-07-29T01:25:19;99092.81;;;16.76;75.41
65280;BME280;51878;55.748;48.742;2022-07-29T01:30:27;99129.19;;;16.94;75.04
65280;BME280;51878;55.748;48.742;2022-07-29T01:32:59;99099.41;;;16.86;74.61
65280;BME280;51878;55.748;48.742;2022-07-29T01:35:33;99036.13;;;16.52;74.51
65280;BME280;51878;55.748;48.742;2022-07-29T01:38:06;99135.25;;;17.08;75.16
65280;BME280;51878;55.748;48.742;2022-07-29T01:41:01;99145.75;;;17.23;74.17
65280;BME280;51878;55.748;48.742;2022-07-29T01:43:44;99110.25;;;16.93;74.39
65280;BME280;51878;55.748;48.742;2022-07-29T01:46:21;99136.22;;;17.02;74.43
65280;BME280;51878;55.748;48.742;2022-07-29T01:49:02;99119.91;;;16.96;74.58
65280;BME280;51878;55.748;48.742;2022-07-29T01:54:34;99115.56;;;16.76;74.73
65280;BME280;51878;55.748;48.742;2022-07-29T01:57:03;99118.56;;;16.86;74.63
65280;BME280;51878;55.748;48.742;2022-07-29T01:59:33;99143.38;;;17.03;74.81
65280;BME280;51878;55.748;48.742;2022-07-29T02:02:04;99148.84;;;17.15;73.98
65280;BME280;51878;55.748;48.742;2022-07-29T02:04:36;99130.50;;;17.04;74.10
65280;BME280;51878;55.748;48.742;2022-07-29T02:07:05;99155.28;;;17.21;73.76
65280;BME280;51878;55.748;48.742;2022-07-29T02:09:35;99108.34;;;17.05;73.38
65280;BME280;51878;55.748;48.742;2022-07-29T02:12:04;99076.78;;;16.91;72.99
65280;BME280;51878;55.748;48.742;2022-07-29T02:14:37;99103.47;;;17.19;72.84
65280;BME280;51878;55.748;48.742;2022-07-29T02:17:05;99132.53;;;17.44;73.45
65280;BME280;51878;55.748;48.742;2022-07-29T02:19:33;99158.28;;;17.43;73.05
65280;BME280;51878;55.748;48.742;2022-07-29T02:22:02;99110.84;;;17.30;73.05
65280;BME280;51878;55.748;48.742;2022-07-29T02:24:30;99078.22;;;17.05;73.59
65280;BME280;51878;55.748;48.742;2022-07-29T02:26:59;99118.59;;;17.45;72.75
65280;BME280;51878;55.748;48.742;2022-07-29T02:29:30;99094.28;;;17.37;72.50
65280;BME280;51878;55.748;48.742;2022-07-29T02:31:59;99144.56;;;17.66;73.08
65280;BME280;51878;55.748;48.742;2022-07-29T02:34:28;99113.34;;;17.44;72.99
65280;BME280;51878;55.748;48.742;2022-07-29T02:36:56;99143.38;;;17.62;73.39
65280;BME280;51878;55.748;48.742;2022-07-29T02:39:24;99134.09;;;17.51;73.51
65280;BME280;51878;55.748;48.742;2022-07-29T02:41:57;99082.03;;;17.28;73.54
65280;BME280;51878;55.748;48.742;2022-07-29T02:44:28;99090.84;;;17.42;73.62
65280;BME280;51878;55.748;48.742;2022-07-29T02:52:26;99101.06;;;17.58;74.03
65280;BME280;51878;55.748;48.742;2022-07-29T02:55:06;99139.41;;;17.93;73.79
65280;BME280;51878;55.748;48.742;2022-07-29T02:57:47;99134.28;;;17.97;73.67
65280;BME280;51878;55.748;48.742;2022-07-29T03:00:21;99123.19;;;17.92;73.56
65280;BME280;51878;55.748;48.742;2022-07-29T03:02:52;99106.03;;;17.85;73.96
65280;BME280;51878;55.748;48.742;2022-07-29T03:05:21;99088.97;;;17.83;73.99
65280;BME280;51878;55.748;48.742;2022-07-29T03:08:00;99102.03;;;18.04;73.51
65280;BME280;51878;55.748;48.742;2022-07-29T03:10:28;99076.91;;;17.95;73.46
65280;BME280;51878;55.748;48.742;2022-07-29T03:12:57;99099.22;;;17.99;73.74
65280;BME280;51878;55.748;48.742;2022-07-29T03:15:25;99159.75;;;18.50;73.24
65280;BME280;51878;55.748;48.742;2022-07-29T03:17:53;99070.78;;;18.05;73.51
65280;BME280;51878;55.748;48.742;2022-07-29T03:20:22;99081.75;;;18.05;73.88
65280;BME280;51878;55.748;48.742;2022-07-29T03:22:50;99146.09;;;18.55;74.00
65280;BME280;51878;55.748;48.742;2022-07-29T03:25:20;99148.28;;;18.70;73.77
65280;BME280;51878;55.748;48.742;2022-07-29T03:27:47;99161.41;;;18.79;74.11
65280;BME280;51878;55.748;48.742;2022-07-29T03:30:15;99152.66;;;18.83;74.02
65280;BME280;51878;55.748;48.742;2022-07-29T03:32:43;99151.72;;;18.77;74.34
65280;BME280;51878;55.748;48.742;2022-07-29T03:35:10;99125.00;;;18.72;74.39
65280;BME280;51878;55.748;48.742;2022-07-29T03:37:38;99130.50;;;18.89;74.13
65280;BME280;51878;55.748;48.742;2022-07-29T03:40:07;99147.59;;;19.08;74.05
65280;BME280;51878;55.748;48.742;2022-07-29T03:42:38;99135.84;;;19.13;72.71
65280;BME280;51878;55.748;48.742;2022-07-29T03:45:10;99148.78;;;19.29;72.17
65280;BME280;51878;55.748;48.742;2022-07-29T03:47:42;99135.34;;;19.33;72.27
65280;BME280;51878;55.748;48.742;2022-07-29T03:50:17;99109.59;;;19.22;71.02
65280;BME280;51878;55.748;48.742;2022-07-29T03:52:46;99146.50;;;19.43;71.29
65280;BME280;51878;55.748;48.742;2022-07-29T03:55:15;99117.13;;;19.49;69.86
65280;BME280;51878;55.748;48.742;2022-07-29T03:57:44;99082.03;;;19.34;70.47
65280;BME280;51878;55.748;48.742;2022-07-29T04:00:11;99105.78;;;19.62;68.92
65280;BME280;51878;55.748;48.742;2022-07-29T04:02:39;99124.44;;;19.77;69.38
65280;BME280;51878;55.748;48.742;2022-07-29T04:05:12;99111.00;;;19.80;68.35
65280;BME280;51878;55.748;48.742;2022-07-29T04:07:40;99100.06;;;19.86;67.37
65280;BME280;51878;55.748;48.742;2022-07-29T04:10:07;99137.63;;;20.19;65.70
65280;BME280;51878;55.748;48.742;2022-07-29T04:12:36;99139.72;;;20.34;65.70
65280;BME280;51878;55.748;48.742;2022-07-29T04:15:04;99085.72;;;20.06;66.00
65280;BME280;51878;55.748;48.742;2022-07-29T04:17:34;99123.41;;;20.27;67.50
65280;BME280;51878;55.748;48.742;2022-07-29T04:20:02;99108.44;;;20.45;67.82
65280;BME280;51878;55.748;48.742;2022-07-29T04:22:29;99127.66;;;20.62;66.85
65280;BME280;51878;55.748;48.742;2022-07-29T04:24:57;99142.38;;;20.73;63.72
65280;BME280;51878;55.748;48.742;2022-07-29T04:27:29;99110.59;;;20.65;65.40
65280;BME280;51878;55.748;48.742;2022-07-29T04:29:56;99149.28;;;20.75;63.40
65280;BME280;51878;55.748;48.742;2022-07-29T04:32:26;99112.34;;;20.76;63.96
65280;BME280;51878;55.748;48.742;2022-07-29T04:34:53;99133.69;;;20.91;63.70
65280;BME280;51878;55.748;48.742;2022-07-29T04:37:20;99136.06;;;21.10;63.36
65280;BME280;51878;55.748;48.742;2022-07-29T04:39:48;99146.81;;;21.11;63.37
65280;BME280;51878;55.748;48.742;2022-07-29T04:42:15;99087.06;;;20.84;63.13
65280;BME280;51878;55.748;48.742;2022-07-29T04:44:42;99063.59;;;20.77;64.29
65280;BME280;51878;55.748;48.742;2022-07-29T04:47:27;99139.91;;;21.41;63.41
65280;BME280;51878;55.748;48.742;2022-07-29T04:49:55;99131.69;;;21.14;62.62
65280;BME280;51878;55.748;48.742;2022-07-29T04:52:22;99122.13;;;21.26;62.32
65280;BME280;51878;55.748;48.742;2022-07-29T04:54:50;99083.31;;;21.01;62.46
65280;BME280;51878;55.748;48.742;2022-07-29T04:57:17;99139.41;;;21.49;62.81
65280;BME280;51878;55.748;48.742;2022-07-29T04:59:44;99115.13;;;21.46;62.07
65280;BME280;51878;55.748;48.742;2022-07-29T05:02:11;99135.50;;;21.45;63.13
65280;BME280;51878;55.748;48.742;2022-07-29T05:04:57;99128.66;;;21.48;62.47
65280;BME280;51878;55.748;48.742;2022-07-29T05:07:24;99158.97;;;21.90;61.15
65280;BME280;51878;55.748;48.742;2022-07-29T05:09:51;99155.09;;;21.91;60.36
65280;BME280;51878;55.748;48.742;2022-07-29T05:12:19;99111.66;;;21.71;58.80
65280;BME280;51878;55.748;48.742;2022-07-29T05:14:46;99119.19;;;21.86;59.50
65280;BME280;51878;55.748;48.742;2022-07-29T05:17:14;99148.25;;;22.04;59.02
65280;BME280;51878;55.748;48.742;2022-07-29T05:19:41;99143.03;;;22.13;58.00
65280;BME280;51878;55.748;48.742;2022-07-29T05:22:08;99132.25;;;22.01;56.00
65280;BME280;51878;55.748;48.742;2022-07-29T05:24:35;99125.38;;;22.14;58.53
65280;BME280;51878;55.748;48.742;2022-07-29T05:27:02;99114.94;;;22.26;57.51
65280;BME280;51878;55.748;48.742;2022-07-29T05:29:29;99108.53;;;22.15;56.97
65280;BME280;51878;55.748;48.742;2022-07-29T05:32:11;99145.63;;;22.30;57.49
65280;BME280;51878;55.748;48.742;2022-07-29T05:34:39;99146.25;;;22.57;55.89
65280;BME280;51878;55.748;48.742;2022-07-29T05:37:16;99134.31;;;22.46;55.91
65280;BME280;51878;55.748;48.742;2022-07-29T05:39:43;99122.19;;;22.53;56.61
65280;BME280;51878;55.748;48.742;2022-07-29T05:42:13;99115.88;;;22.67;58.21
65280;BME280;51878;55.748;48.742;2022-07-29T05:44:40;99106.44;;;22.43;55.16
65280;BME280;51878;55.748;48.742;2022-07-29T05:47:07;99127.72;;;22.47;55.07
65280;BME280;51878;55.748;48.742;2022-07-29T05:49:34;99123.09;;;22.89;54.20
65280;BME280;51878;55.748;48.742;2022-07-29T05:52:01;99091.53;;;22.54;55.42
65280;BME280;51878;55.748;48.742;2022-07-29T05:54:29;99123.34;;;22.67;54.96
65280;BME280;51878;55.748;48.742;2022-07-29T05:56:56;99096.81;;;22.71;52.25
65280;BME280;51878;55.748;48.742;2022-07-29T05:59:23;99090.44;;;22.65;54.31
65280;BME280;51878;55.748;48.742;2022-07-29T06:01:55;99119.19;;;23.26;53.94
65280;BME280;51878;55.748;48.742;2022-07-29T06:04:24;99087.16;;;23.09;50.43
65280;BME280;51878;55.748;48.742;2022-07-29T06:06:51;99124.72;;;23.36;49.52
65280;BME280;51878;55.748;48.742;2022-07-29T06:09:18;99110.91;;;23.26;52.48
65280;BME280;51878;55.748;48.742;2022-07-29T06:11:45;99097.25;;;23.65;48.48
65280;BME280;51878;55.748;48.742;2022-07-29T06:14:13;99127.06;;;24.04;48.65
65280;BME280;51878;55.748;48.742;2022-07-29T06:16:41;99079.25;;;23.78;49.21
65280;BME280;51878;55.748;48.742;2022-07-29T06:19:08;99075.56;;;24.03;47.93
65280;BME280;51878;55.748;48.742;2022-07-29T06:21:35;99092.34;;;24.22;47.25
65280;BME280;51878;55.748;48.742;2022-07-29T06:24:04;99107.28;;;24.26;46.21
65280;BME280;51878;55.748;48.742;2022-07-29T06:26:32;99122.25;;;24.75;47.54
65280;BME280;51878;55.748;48.742;2022-07-29T06:29:05;99128.63;;;25.44;46.13
65280;BME280;51878;55.748;48.742;2022-07-29T06:31:33;99112.34;;;25.62;46.23
65280;BME280;51878;55.748;48.742;2022-07-29T06:34:01;99042.44;;;25.54;43.96
65280;BME280;51878;55.748;48.742;2022-07-29T06:36:29;99110.25;;;25.48;45.05
65280;BME280;51878;55.748;48.742;2022-07-29T06:38:56;99098.31;;;25.24;44.98
65280;BME280;51878;55.748;48.742;2022-07-29T06:41:23;99092.69;;;25.82;44.60
65280;BME280;51878;55.748;48.742;2022-07-29T06:43:50;99114.84;;;26.11;43.64
65280;BME280;51878;55.748;48.742;2022-07-29T06:46:23;99124.56;;;26.52;42.42
65280;BME280;51878;55.748;48.742;2022-07-29T06:48:50;99120.66;;;26.15;42.12
65280;BME280;51878;55.748;48.742;2022-07-29T06:51:19;99143.91;;;26.19;41.47
65280;BME280;51878;55.748;48.742;2022-07-29T06:53:50;99093.72;;;26.10;41.64
65280;BME280;51878;55.748;48.742;2022-07-29T06:56:24;99077.09;;;27.00;39.92
65280;BME280;51878;55.748;48.742;2022-07-29T06:58:52;99127.38;;;27.55;39.67
65280;BME280;51878;55.748;48.742;2022-07-29T07:01:19;99122.16;;;27.02;39.77
65280;BME280;51878;55.748;48.742;2022-07-29T07:03:46;99129.06;;;27.05;40.20
65280;BME280;51878;55.748;48.742;2022-07-29T07:06:13;99097.47;;;26.82;41.33
65280;BME280;51878;55.748;48.742;2022-07-29T07:08:41;99127.25;;;27.14;43.11
65280;BME280;51878;55.748;48.742;2022-07-29T07:11:08;99112.84;;;27.58;39.64
65280;BME280;51878;55.748;48.742;2022-07-29T07:13:35;99096.03;;;28.19;38.79
65280;BME280;51878;55.748;48.742;2022-07-29T07:16:03;99126.78;;;28.28;37.99
65280;BME280;51878;55.748;48.742;2022-07-29T07:18:31;99113.81;;;28.59;39.02
65280;BME280;51878;55.748;48.742;2022-07-29T07:20:59;99139.22;;;28.08;37.84
65280;BME280;51878;55.748;48.742;2022-07-29T07:23:26;99120.28;;;27.63;39.22
65280;BME280;51878;55.748;48.742;2022-07-29T07:25:53;99134.50;;;27.61;39.56
65280;BME280;51878;55.748;48.742;2022-07-29T07:28:20;99131.28;;;27.87;38.90
65280;BME280;51878;55.748;48.742;2022-07-29T07:31:06;99140.84;;;27.95;40.78
65280;BME280;51878;55.748;48.742;2022-07-29T07:33:33;99080.06;;;27.69;37.92
65280;BME280;51878;55.748;48.742;2022-07-29T07:36:00;99139.59;;;28.79;36.18
65280;BME280;51878;55.748;48.742;2022-07-29T07:38:27;99078.31;;;28.01;35.56
65280;BME280;51878;55.748;48.742;2022-07-29T07:40:55;99131.25;;;28.01;36.00
65280;BME280;51878;55.748;48.742;2022-07-29T07:43:22;99137.97;;;28.14;37.00
65280;BME280;51878;55.748;48.742;2022-07-29T07:45:49;99094.28;;;28.73;36.57
65280;BME280;51878;55.748;48.742;2022-07-29T07:48:16;99120.97;;;29.64;35.25
65280;BME280;51878;55.748;48.742;2022-07-29T07:50:43;99123.88;;;29.51;34.67
65280;BME280;51878;55.748;48.742;2022-07-29T07:53:11;99110.88;;;28.78;35.46
65280;BME280;51878;55.748;48.742;2022-07-29T07:55:42;99104.84;;;30.76;31.55
65280;BME280;51878;55.748;48.742;2022-07-29T07:58:29;99115.25;;;30.01;33.00
65280;BME280;51878;55.748;48.742;2022-07-29T08:00:56;99085.91;;;30.56;31.52
65280;BME280;51878;55.748;48.742;2022-07-29T08:03:24;99117.59;;;31.64;31.59
65280;BME280;51878;55.748;48.742;2022-07-29T08:05:51;99120.34;;;29.99;33.42
65280;BME280;51878;55.748;48.742;2022-07-29T08:08:37;99134.91;;;27.41;38.13
65280;BME280;51878;55.748;48.742;2022-07-29T08:11:04;99078.34;;;28.51;35.44
65280;BME280;51878;55.748;48.742;2022-07-29T08:13:36;99114.72;;;31.82;32.66
65280;BME280;51878;55.748;48.742;2022-07-29T08:16:03;99096.00;;;32.75;29.01
65280;BME280;51878;55.748;48.742;2022-07-29T08:18:41;99075.97;;;30.23;33.49
65280;BME280;51878;55.748;48.742;2022-07-29T08:21:08;99100.16;;;30.19;32.53
65280;BME280;51878;55.748;48.742;2022-07-29T08:23:36;99072.06;;;29.76;32.56
65280;BME280;51878;55.748;48.742;2022-07-29T08:26:12;99126.41;;;30.58;31.76
65280;BME280;51878;55.748;48.742;2022-07-29T08:28:43;99105.34;;;30.61;30.65
65280;BME280;51878;55.748;48.742;2022-07-29T08:31:16;99126.91;;;29.94;32.36
65280;BME280;51878;55.748;48.742;2022-07-29T08:33:44;99082.28;;;29.49;31.96
65280;BME280;51878;55.748;48.742;2022-07-29T08:36:11;99125.38;;;29.79;32.69
65280;BME280;51878;55.748;48.742;2022-07-29T08:38:39;99123.09;;;30.30;32.08
65280;BME280;51878;55.748;48.742;2022-07-29T08:41:07;99147.56;;;29.08;34.17
65280;BME280;51878;55.748;48.742;2022-07-29T08:43:34;99078.78;;;29.12;33.89
65280;BME280;51878;55.748;48.742;2022-07-29T08:46:04;99094.47;;;29.53;32.37
65280;BME280;51878;55.748;48.742;2022-07-29T08:48:32;99125.81;;;30.13;31.11
65280;BME280;51878;55.748;48.742;2022-07-29T08:51:00;99125.38;;;31.41;29.80
65280;BME280;51878;55.748;48.742;2022-07-29T08:53:28;99126.28;;;30.98;30.29
65280;BME280;51878;55.748;48.742;2022-07-29T08:55:56;99128.41;;;29.38;33.37
65280;BME280;51878;55.748;48.742;2022-07-29T08:58:25;99118.22;;;28.74;32.77
65280;BME280;51878;55.748;48.742;2022-07-29T09:00:54;99105.91;;;29.74;32.53
65280;BME280;51878;55.748;48.742;2022-07-29T09:03:23;99120.47;;;30.77;30.77
65280;BME280;51878;55.748;48.742;2022-07-29T09:05:51;99066.38;;;32.15;29.59
65280;BME280;51878;55.748;48.742;2022-07-29T09:08:19;99104.13;;;35.07;25.28
65280;BME280;51878;55.748;48.742;2022-07-29T09:10:47;99111.94;;;33.71;25.68
65280;BME280;51878;55.748;48.742;2022-07-29T09:13:14;99044.66;;;31.73;28.34
65280;BME280;51878;55.748;48.742;2022-07-29T09:15:42;99052.72;;;31.27;30.00
65280;BME280;51878;55.748;48.742;2022-07-29T09:18:09;99108.53;;;30.19;30.72
65280;BME280;51878;55.748;48.742;2022-07-29T09:20:51;99107.47;;;30.55;31.25
65280;BME280;51878;55.748;48.742;2022-07-29T09:23:37;99045.88;;;30.64;29.91
65280;BME280;51878;55.748;48.742;2022-07-29T09:26:06;99087.38;;;30.44;31.10
65280;BME280;51878;55.748;48.742;2022-07-29T09:28:33;99085.34;;;31.32;28.80
65280;BME280;51878;55.748;48.742;2022-07-29T09:31:01;99054.28;;;33.65;26.76
65280;BME280;51878;55.748;48.742;2022-07-29T09:33:33;99086.66;;;34.20;25.30
65280;BME280;51878;55.748;48.742;2022-07-29T09:36:08;98997.69;;;31.23;28.29
65280;BME280;51878;55.748;48.742;2022-07-29T09:38:36;99081.13;;;30.47;30.00
65280;BME280;51878;55.748;48.742;2022-07-29T09:41:05;99097.44;;;30.63;30.60
65280;BME280;51878;55.748;48.742;2022-07-29T09:43:33;99102.72;;;30.91;30.51
65280;BME280;51878;55.748;48.742;2022-07-29T09:46:11;99090.66;;;28.95;32.14
65280;BME280;51878;55.748;48.742;2022-07-29T09:48:38;99084.59;;;30.62;30.52
65280;BME280;51878;55.748;48.742;2022-07-29T09:51:19;99090.97;;;31.23;30.87
65280;BME280;51878;55.748;48.742;2022-07-29T09:54:26;99091.53;;;29.98;31.21
65280;BME280;51878;55.748;48.742;2022-07-29T09:56:55;99060.06;;;31.02;30.23
65280;BME280;51878;55.748;48.742;2022-07-29T09:59:23;99046.09;;;29.75;31.94
65280;BME280;51878;55.748;48.742;2022-07-29T10:01:53;99086.53;;;30.35;30.92
65280;BME280;51878;55.748;48.742;2022-07-29T10:04:21;99056.38;;;30.15;30.80
65280;BME280;51878;55.748;48.742;2022-07-29T10:06:58;99106.41;;;29.45;31.14
65280;BME280;51878;55.748;48.742;2022-07-29T10:09:31;99078.41;;;29.05;32.70
65280;BME280;51878;55.748;48.742;2022-07-29T10:12:08;99099.47;;;27.88;34.96
65280;BME280;51878;55.748;48.742;2022-07-29T10:14:40;99101.47;;;28.38;34.48
65280;BME280;51878;55.748;48.742;2022-07-29T10:17:09;99038.84;;;28.44;33.90
65280;BME280;51878;55.748;48.742;2022-07-29T10:19:38;99095.41;;;28.95;33.60
65280;BME280;51878;55.748;48.742;2022-07-29T10:22:08;99077.84;;;28.21;34.18
65280;BME280;51878;55.748;48.742;2022-07-29T10:24:37;99109.75;;;29.56;32.51
65280;BME280;51878;55.748;48.742;2022-07-29T10:27:07;99069.91;;;31.08;30.24
65280;BME280;51878;55.748;48.742;2022-07-29T10:29:35;99064.50;;;29.76;32.41
65280;BME280;51878;55.748;48.742;2022-07-29T10:43:27;99072.53;;;31.22;28.77
65280;BME280;51878;55.748;48.742;2022-07-29T10:45:57;99100.41;;;29.92;31.32
65280;BME280;51878;55.748;48.742;2022-07-29T10:48:25;99090.88;;;29.30;32.40
65280;BME280;51878;55.748;48.742;2022-07-29T10:51:00;99099.16;;;30.15;30.70
65280;BME280;51878;55.748;48.742;2022-07-29T10:53:59;99097.56;;;29.83;31.27
65280;BME280;51878;55.748;48.742;2022-07-29T10:56:32;99099.59;;;29.29;32.63
65280;BME280;51878;55.748;48.742;2022-07-29T11:01:49;99059.22;;;29.35;33.06
65280;BME280;51878;55.748;48.742;2022-07-29T11:07:19;99093.25;;;29.14;33.26
65280;BME280;51878;55.748;48.742;2022-07-29T11:15:07;99099.66;;;28.92;31.01
65280;BME280;51878;55.748;48.742;2022-07-29T11:23:00;99036.28;;;28.48;33.09
65280;BME280;51878;55.748;48.742;2022-07-29T11:25:30;99087.88;;;29.18;32.57
65280;BME280;51878;55.748;48.742;2022-07-29T11:28:13;99077.25;;;28.83;32.62
65280;BME280;51878;55.748;48.742;2022-07-29T11:30:52;99020.06;;;27.99;32.20
65280;BME280;51878;55.748;48.742;2022-07-29T11:33:30;99078.94;;;28.48;32.51
65280;BME280;51878;55.748;48.742;2022-07-29T11:36:14;99010.44;;;29.98;31.30
65280;BME280;51878;55.748;48.742;2022-07-29T11:38:42;99037.81;;;30.97;28.91
65280;BME280;51878;55.748;48.742;2022-07-29T11:41:23;99034.56;;;30.34;28.82
65280;BME280;51878;55.748;48.742;2022-07-29T11:43:58;99110.16;;;29.09;30.58
65280;BME280;51878;55.748;48.742;2022-07-29T11:46:44;99108.59;;;28.80;30.33
65280;BME280;51878;55.748;48.742;2022-07-29T11:49:23;99028.00;;;28.20;30.15
65280;BME280;51878;55.748;48.742;2022-07-29T11:51:58;99059.44;;;28.34;30.80
65280;BME280;51878;55.748;48.742;2022-07-29T11:54:34;99092.16;;;28.56;29.65
65280;BME280;51878;55.748;48.742;2022-07-29T11:57:06;99063.53;;;28.00;30.16
65280;BME280;51878;55.748;48.742;2022-07-29T11:59:41;99082.81;;;28.61;29.57
65280;BME280;51878;55.748;48.742;2022-07-29T12:02:12;99057.75;;;27.83;31.59
65280;BME280;51878;55.748;48.742;2022-07-29T12:05:00;99047.38;;;28.25;31.93
65280;BME280;51878;55.748;48.742;2022-07-29T12:07:30;99066.59;;;27.71;32.62
65280;BME280;51878;55.748;48.742;2022-07-29T12:09:58;99070.13;;;28.55;31.23
65280;BME280;51878;55.748;48.742;2022-07-29T12:12:25;99074.09;;;28.76;31.81
65280;BME280;51878;55.748;48.742;2022-07-29T12:14:53;99033.69;;;28.51;33.23
65280;BME280;51878;55.748;48.742;2022-07-29T12:17:26;99038.38;;;28.28;33.70
65280;BME280;51878;55.748;48.742;2022-07-29T12:19:57;99001.66;;;28.12;33.76
65280;BME280;51878;55.748;48.742;2022-07-29T12:22:37;99055.78;;;27.97;33.97
65280;BME280;51878;55.748;48.742;2022-07-29T12:28:02;99058.81;;;28.51;32.99
65280;BME280;51878;55.748;48.742;2022-07-29T12:30:39;99054.75;;;28.43;33.79
65280;BME280;51878;55.748;48.742;2022-07-29T12:35:39;99034.84;;;27.86;33.71
65280;BME280;51878;55.748;48.742;2022-07-29T12:38:09;99028.75;;;27.56;34.09
65280;BME280;51878;55.748;48.742;2022-07-29T12:40:37;99040.53;;;27.67;32.88
65280;BME280;51878;55.748;48.742;2022-07-29T12:43:24;99008.53;;;27.51;35.32
65280;BME280;51878;55.748;48.742;2022-07-29T12:45:55;98965.94;;;27.36;33.66
65280;BME280;51878;55.748;48.742;2022-07-29T12:48:36;99070.09;;;27.49;34.20
65280;BME280;51878;55.748;48.742;2022-07-29T12:51:05;99039.19;;;27.78;34.43
65280;BME280;51878;55.748;48.742;2022-07-29T12:53:35;99004.59;;;27.38;33.65
65280;BME280;51878;55.748;48.742;2022-07-29T12:56:03;99064.44;;;27.82;33.05
65280;BME280;51878;55.748;48.742;2022-07-29T12:58:46;99049.91;;;27.57;33.37
65280;BME280;51878;55.748;48.742;2022-07-29T13:01:17;99047.03;;;27.76;34.69
65280;BME280;51878;55.748;48.742;2022-07-29T13:03:48;99071.97;;;27.81;34.46
65280;BME280;51878;55.748;48.742;2022-07-29T13:06:44;99083.88;;;28.01;33.89
65280;BME280;51878;55.748;48.742;2022-07-29T13:09:17;99056.41;;;27.39;35.57
65280;BME280;51878;55.748;48.742;2022-07-29T13:11:47;99037.53;;;27.64;34.12
65280;BME280;51878;55.748;48.742;2022-07-29T13:14:35;99033.19;;;27.30;33.50
65280;BME280;51878;55.748;48.742;2022-07-29T13:17:13;99062.78;;;27.26;33.09
65280;BME280;51878;55.748;48.742;2022-07-29T13:19:45;98985.09;;;26.64;34.46
65280;BME280;51878;55.748;48.742;2022-07-29T13:22:14;99041.44;;;27.49;33.94
65280;BME280;51878;55.748;48.742;2022-07-29T13:25:01;99079.63;;;27.62;34.29
65280;BME280;51878;55.748;48.742;2022-07-29T13:27:32;99055.47;;;26.97;36.81
65280;BME280;51878;55.748;48.742;2022-07-29T13:30:02;99045.44;;;27.29;35.58
65280;BME280;51878;55.748;48.742;2022-07-29T13:32:31;99078.38;;;27.68;34.23
65280;BME280;51878;55.748;48.742;2022-07-29T13:35:06;99085.41;;;27.93;34.10
65280;BME280;51878;55.748;48.742;2022-07-29T13:37:34;99014.44;;;27.03;34.62
65280;BME280;51878;55.748;48.742;2022-07-29T13:40:07;99077.94;;;27.33;34.20
65280;BME280;51878;55.748;48.742;2022-07-29T13:42:35;99077.38;;;27.17;35.16
65280;BME280;51878;55.748;48.742;2022-07-29T13:45:03;99087.72;;;26.98;34.79
65280;BME280;51878;55.748;48.742;2022-07-29T13:47:31;99048.91;;;26.55;36.95
65280;BME280;51878;55.748;48.742;2022-07-29T13:50:02;99062.13;;;26.63;36.80
65280;BME280;51878;55.748;48.742;2022-07-29T13:52:30;99040.72;;;26.64;37.44
65280;BME280;51878;55.748;48.742;2022-07-29T13:54:58;99052.66;;;26.64;36.08
65280;BME280;51878;55.748;48.742;2022-07-29T13:57:25;99082.44;;;26.64;37.73